Aeroporto :
LOGIN :

Iscrizione | Disclaimer

   EN    FR    IT 

 










Sommario :    VFR   VFR Marginale   IFR   IFR Intensivo   IFR Molto Intensivo
Visibilità : 
Base nubi : 
>= 8 km
>= 3000ft
5 / 8 km
1000 / 3000 ft
1500m / 5 km
500 / 1000 ft
800 / 1500m
200 / 500 ft
< 800m
< 200 ft
Simboli :   Temporali  Nebbia  Neve Forte  Precipitazioni Forti  Vento > 20 kt
SIGMETs :   Varie  Temporali  Ghiacco  Turbolenza  Onda orograficha  Ceneri Vulcaniche







- Altitudine del aeroporto : 215 ft
- Codice IATA : TAR


LIBG - Grottaglie Arpt. Taranto

ULTIMO METAR :
  • 261850Z 32009KT 280V350 9999 SCT030 13/08 Q1013

METARs OBSOLETI :
  • 261750Z 35007KT 9999 SCT030 13/09 Q1012
  • 261650Z 35012KT 9999 SCT030 14/09 Q1012

TAF TAF LIBG
Valido dal 26 a 18 ore il 27 a 03 ore UTC


261700Z 2618/2703 35012KT 9999 SCT020 SCT040
Nessun NOTAM noto per questo aeroporto.
1 SIGMET conosciuto per la FIR Brindisi (LIBB) :
 
Temporali affogati
LIBB SIGMET 4 VALID 261730/262030 LIIB
LIBB BRINDISI FIR EMBD TS FCST WI N4236 E01328 - N4252 E01528 - N4216 E01619 - N4134 E01757 - N3927 E01611 - N4115 E01510 - N4124 E01422 - N4236 E01328 TOP FL270 STNR NC=



MetMap, La meteo Aeronautica in un colpo d'occhio ! - Copyright ORBIFLY Dicembre 2007 - Disclaimer

ORBIFLY MET'MAP TEAM :

Programmazione e sviluppo : Alexandra Zaïnal
Concezione e sviluppo : Baudouin d'Aumeries
Co-Programmazione e sviluppo : Marc-Olivier Méhu
Supporto tecnico e logistico : Manuel Goepfert
Aiuto per la traduzione : Arnaldo La Scala

Contatto : metmap@orbifly.com




FONTI E CREDITI :

   NOAA